createdAt,value
2018-07-15T00:02:32.044Z,16.60
2018-07-15T00:05:00.267Z,16.60
2018-07-15T00:07:28.464Z,16.60
2018-07-15T00:09:56.638Z,16.50
2018-07-15T00:12:24.906Z,16.50
2018-07-15T00:14:53.142Z,16.50
2018-07-15T00:17:21.376Z,16.40
2018-07-15T00:19:49.563Z,16.30
2018-07-15T00:22:17.829Z,16.20
2018-07-15T00:24:47.095Z,16.20
2018-07-15T00:27:15.266Z,16.20
2018-07-15T00:29:43.539Z,16.10
2018-07-15T00:32:11.717Z,16.10
2018-07-15T00:34:39.967Z,16.10
2018-07-15T00:37:08.283Z,16.00
2018-07-15T00:39:36.525Z,16.10
2018-07-15T00:42:04.843Z,16.10
2018-07-15T00:44:33.171Z,16.10
2018-07-15T00:47:01.382Z,16.10
2018-07-15T00:49:29.622Z,16.10
2018-07-15T00:51:57.857Z,16.00
2018-07-15T00:56:54.055Z,16.00
2018-07-15T00:59:22.243Z,16.00
2018-07-15T01:01:50.445Z,16.00
2018-07-15T01:04:18.685Z,16.00
2018-07-15T01:06:46.926Z,16.00
2018-07-15T01:09:15.122Z,15.90
2018-07-15T01:11:43.322Z,15.90
2018-07-15T01:14:11.600Z,15.90
2018-07-15T01:16:40.761Z,15.90
2018-07-15T01:19:09.299Z,15.90
2018-07-15T01:24:05.844Z,16.00
2018-07-15T01:26:34.046Z,16.00
2018-07-15T01:29:02.322Z,15.90
2018-07-15T01:31:30.546Z,15.90
2018-07-15T01:33:58.819Z,15.90
2018-07-15T01:36:27.028Z,15.90
2018-07-15T01:41:23.169Z,15.90
2018-07-15T01:43:51.375Z,15.90
2018-07-15T01:46:19.639Z,15.90
2018-07-15T01:48:47.827Z,15.90
2018-07-15T01:51:16.050Z,15.70
2018-07-15T01:56:12.252Z,15.70
2018-07-15T01:58:40.612Z,15.70
2018-07-15T02:01:08.842Z,15.70
2018-07-15T02:03:37.024Z,15.70
2018-07-15T02:08:33.481Z,15.80
2018-07-15T02:11:01.689Z,15.80
2018-07-15T02:13:29.925Z,15.80
2018-07-15T02:15:58.241Z,15.70
2018-07-15T02:18:26.471Z,15.60
2018-07-15T02:20:54.664Z,15.50
2018-07-15T02:23:22.923Z,15.50
2018-07-15T02:25:51.127Z,15.40
2018-07-15T02:28:19.326Z,15.40
2018-07-15T02:30:47.539Z,15.40
2018-07-15T02:33:15.727Z,15.40
2018-07-15T02:35:44.049Z,15.40
2018-07-15T02:38:12.237Z,15.40
2018-07-15T02:40:40.497Z,15.40
2018-07-15T02:43:09.273Z,15.40
2018-07-15T02:45:38.379Z,15.40
2018-07-15T02:48:06.652Z,15.40
2018-07-15T02:50:35.130Z,15.30
2018-07-15T02:53:03.446Z,15.30
2018-07-15T02:55:31.694Z,15.20
2018-07-15T02:57:59.969Z,15.20
2018-07-15T03:00:29.243Z,15.10
2018-07-15T03:02:58.711Z,15.00
2018-07-15T03:05:27.047Z,15.00
2018-07-15T03:07:55.212Z,15.00
2018-07-15T03:10:23.534Z,14.90
2018-07-15T03:12:51.715Z,14.90
2018-07-15T03:15:21.017Z,14.80
2018-07-15T03:17:49.265Z,14.80
2018-07-15T03:20:17.511Z,14.80
2018-07-15T03:22:45.945Z,14.80
2018-07-15T03:25:14.300Z,14.90
2018-07-15T03:27:42.561Z,14.90
2018-07-15T03:30:10.821Z,14.90
2018-07-15T03:32:40.186Z,14.80
2018-07-15T03:35:08.600Z,14.70
2018-07-15T03:37:36.810Z,14.70
2018-07-15T03:40:04.976Z,14.60
2018-07-15T03:42:33.169Z,14.60
2018-07-15T03:45:01.529Z,14.60
2018-07-15T03:47:29.746Z,14.40
2018-07-15T03:49:57.936Z,14.30
2018-07-15T03:52:26.160Z,14.30
2018-07-15T03:54:54.410Z,14.30
2018-07-15T03:57:22.612Z,14.40
2018-07-15T04:02:18.902Z,14.40
2018-07-15T04:04:47.408Z,14.40
2018-07-15T04:07:15.638Z,14.50
2018-07-15T04:09:43.813Z,14.50
2018-07-15T04:12:12.033Z,14.50
2018-07-15T04:14:40.404Z,14.60
2018-07-15T04:17:08.941Z,14.60
2018-07-15T04:19:37.694Z,14.60
2018-07-15T04:22:06.103Z,14.50
2018-07-15T04:24:35.339Z,14.50
2018-07-15T04:27:03.577Z,14.50
2018-07-15T04:29:31.807Z,14.60
2018-07-15T04:32:00.082Z,14.60
2018-07-15T04:34:28.349Z,14.60
2018-07-15T04:36:56.579Z,14.70
2018-07-15T04:39:24.755Z,14.80
2018-07-15T04:41:53.019Z,14.90
2018-07-15T04:44:21.322Z,14.90
2018-07-15T04:46:49.536Z,15.00
2018-07-15T04:49:17.777Z,15.00
2018-07-15T04:51:45.970Z,15.00
2018-07-15T04:54:14.303Z,15.00
2018-07-15T04:56:42.491Z,15.10
2018-07-15T04:59:10.699Z,15.10
2018-07-15T05:01:41.704Z,15.20
2018-07-15T05:04:10.877Z,15.20
2018-07-15T05:06:39.062Z,15.20
2018-07-15T05:09:08.058Z,15.30
2018-07-15T05:11:37.245Z,15.30
2018-07-15T05:14:05.743Z,15.40
2018-07-15T05:16:33.998Z,15.50
2018-07-15T05:19:02.243Z,15.50
2018-07-15T05:21:30.467Z,15.60
2018-07-15T05:23:58.907Z,15.70
2018-07-15T05:26:27.183Z,15.70
2018-07-15T05:28:55.376Z,15.80
2018-07-15T05:31:23.598Z,15.90
2018-07-15T05:33:51.833Z,16.00
2018-07-15T05:36:20.005Z,16.20
2018-07-15T05:38:48.258Z,16.30
2018-07-15T05:41:16.522Z,16.50
2018-07-15T05:43:44.756Z,16.60
2018-07-15T05:46:13.200Z,16.70
2018-07-15T05:48:41.421Z,16.90
2018-07-15T05:51:09.660Z,17.00
2018-07-15T05:53:37.871Z,17.10
2018-07-15T05:56:06.322Z,17.20
2018-07-15T05:58:34.536Z,17.40
2018-07-15T06:01:02.749Z,17.50
2018-07-15T06:03:31.018Z,17.50
2018-07-15T06:05:59.306Z,17.50
2018-07-15T06:08:27.484Z,17.50
2018-07-15T06:10:55.711Z,17.50
2018-07-15T06:13:23.921Z,17.60
2018-07-15T06:15:52.209Z,17.70
2018-07-15T06:18:20.435Z,17.90
2018-07-15T06:20:48.715Z,18.00
2018-07-15T06:23:16.964Z,18.10
2018-07-15T06:25:45.429Z,18.20
2018-07-15T06:28:13.773Z,18.20
2018-07-15T06:30:42.012Z,18.30
2018-07-15T06:33:10.319Z,18.30
2018-07-15T06:35:38.674Z,18.40
2018-07-15T06:38:07.464Z,18.50
2018-07-15T06:40:35.666Z,18.60
2018-07-15T06:43:03.893Z,18.70
2018-07-15T06:45:32.129Z,18.80
2018-07-15T06:48:00.379Z,18.90
2018-07-15T06:50:28.596Z,18.90
2018-07-15T06:52:56.813Z,19.00
2018-07-15T06:55:25.065Z,19.00
2018-07-15T06:57:53.323Z,19.00
2018-07-15T07:00:21.501Z,19.10
2018-07-15T07:02:49.711Z,19.10
2018-07-15T07:05:18.201Z,19.20
2018-07-15T07:07:46.611Z,19.20
2018-07-15T07:10:14.754Z,19.30
2018-07-15T07:12:42.926Z,19.40
2018-07-15T07:15:11.277Z,19.40
2018-07-15T07:17:39.545Z,19.50
2018-07-15T07:20:07.750Z,19.60
2018-07-15T07:22:36.616Z,19.70
2018-07-15T07:27:33.196Z,19.90
2018-07-15T07:30:01.424Z,19.90
2018-07-15T07:32:29.645Z,20.10
2018-07-15T07:34:58.147Z,20.10
2018-07-15T07:37:26.411Z,20.20
2018-07-15T07:39:54.658Z,20.30
2018-07-15T07:42:22.968Z,20.30
2018-07-15T07:44:51.389Z,20.50
2018-07-15T07:47:19.688Z,20.50
2018-07-15T07:49:47.980Z,20.50
2018-07-15T07:52:16.203Z,20.60
2018-07-15T07:54:45.195Z,20.60
2018-07-15T07:57:13.462Z,20.80
2018-07-15T07:59:41.758Z,20.90
2018-07-15T08:02:09.960Z,20.90
2018-07-15T08:04:38.407Z,21.00
2018-07-15T08:07:06.607Z,21.00
2018-07-15T08:09:34.811Z,21.10
2018-07-15T08:12:03.099Z,21.10
2018-07-15T08:14:31.523Z,21.10
2018-07-15T08:16:59.784Z,21.20
2018-07-15T08:19:28.046Z,21.20
2018-07-15T08:21:56.283Z,21.50
2018-07-15T08:24:24.580Z,21.50
2018-07-15T08:26:52.860Z,21.50
2018-07-15T08:29:21.081Z,21.60
2018-07-15T08:31:49.312Z,21.70
2018-07-15T08:34:17.741Z,21.70
2018-07-15T08:36:45.951Z,21.70
2018-07-15T08:39:14.163Z,21.80
2018-07-15T08:41:42.406Z,21.80
2018-07-15T08:44:10.828Z,21.80
2018-07-15T08:46:39.067Z,22.00
2018-07-15T08:49:07.298Z,22.10
2018-07-15T08:51:35.544Z,22.00
2018-07-15T08:54:04.004Z,22.00
2018-07-15T08:56:32.205Z,21.90
2018-07-15T08:59:00.504Z,22.00
2018-07-15T09:01:28.820Z,22.00
2018-07-15T09:03:57.091Z,22.00
2018-07-15T09:06:25.381Z,22.20
2018-07-15T09:08:53.581Z,22.30
2018-07-15T09:11:21.839Z,22.40
2018-07-15T09:13:50.157Z,22.50
2018-07-15T09:16:18.321Z,22.60
2018-07-15T09:18:46.541Z,22.60
2018-07-15T09:21:14.796Z,22.60
2018-07-15T09:23:42.898Z,22.50
2018-07-15T09:26:11.143Z,22.40
2018-07-15T09:28:39.368Z,22.40
2018-07-15T09:31:07.536Z,22.50
2018-07-15T09:33:35.768Z,22.70
2018-07-15T09:36:04.196Z,22.90
2018-07-15T09:38:32.383Z,23.20
2018-07-15T09:41:00.593Z,23.20
2018-07-15T09:43:28.829Z,23.30
2018-07-15T09:45:57.308Z,23.50
2018-07-15T09:48:25.506Z,23.60
2018-07-15T09:50:53.659Z,23.50
2018-07-15T09:53:21.967Z,23.50
2018-07-15T09:55:50.311Z,23.50
2018-07-15T09:58:18.536Z,23.60
2018-07-15T10:00:51.932Z,23.60
2018-07-15T10:03:20.145Z,23.60
2018-07-15T10:05:48.490Z,23.40
2018-07-15T10:08:16.715Z,23.40
2018-07-15T10:10:44.918Z,23.20
2018-07-15T10:13:13.076Z,23.10
2018-07-15T10:15:42.359Z,22.90
2018-07-15T10:18:10.580Z,22.90
2018-07-15T10:20:38.887Z,23.00
2018-07-15T10:23:07.055Z,23.00
2018-07-15T10:28:03.364Z,22.70
2018-07-15T10:30:31.504Z,22.60
2018-07-15T10:32:59.708Z,22.70
2018-07-15T10:35:28.044Z,22.70
2018-07-15T10:37:56.350Z,23.00
2018-07-15T10:40:24.563Z,22.90
2018-07-15T10:42:52.772Z,22.80
2018-07-15T10:45:21.290Z,22.80
2018-07-15T10:47:50.658Z,22.90
2018-07-15T10:50:18.895Z,22.90
2018-07-15T10:52:47.169Z,23.00
2018-07-15T10:55:15.485Z,23.00
2018-07-15T10:57:43.720Z,23.00
2018-07-15T11:00:11.926Z,23.10
2018-07-15T11:02:40.160Z,23.10
2018-07-15T11:05:08.591Z,23.10
2018-07-15T11:07:36.903Z,23.20
2018-07-15T11:10:05.373Z,23.20
2018-07-15T11:12:33.551Z,23.20
2018-07-15T11:15:01.997Z,23.20
2018-07-15T11:17:30.173Z,23.30
2018-07-15T11:19:58.607Z,23.40
2018-07-15T11:22:26.918Z,23.40
2018-07-15T11:24:55.211Z,23.40
2018-07-15T11:27:23.474Z,23.30
2018-07-15T11:29:51.667Z,23.30
2018-07-15T11:32:19.943Z,23.30
2018-07-15T11:34:48.670Z,23.30
2018-07-15T11:37:16.880Z,23.30
2018-07-15T11:39:45.089Z,23.30
2018-07-15T11:42:13.300Z,23.30
2018-07-15T11:44:41.690Z,23.30
2018-07-15T11:47:09.924Z,23.30
2018-07-15T11:49:38.402Z,23.40
2018-07-15T11:52:06.609Z,23.40
2018-07-15T11:57:04.242Z,23.80
2018-07-15T11:59:32.556Z,23.80
2018-07-15T12:02:00.917Z,23.90
2018-07-15T12:05:00.213Z,23.80
2018-07-15T12:07:28.464Z,23.90
2018-07-15T12:09:56.717Z,24.00
2018-07-15T12:12:24.913Z,24.10
2018-07-15T12:14:53.253Z,24.10
2018-07-15T12:17:21.460Z,24.20
2018-07-15T12:19:49.703Z,24.30
2018-07-15T12:22:17.984Z,24.30
2018-07-15T12:24:46.426Z,24.40
2018-07-15T12:27:14.646Z,24.30
2018-07-15T12:29:42.961Z,24.30
2018-07-15T12:32:11.186Z,24.30
2018-07-15T12:34:39.644Z,24.40
2018-07-15T12:37:07.926Z,24.50
2018-07-15T12:39:36.398Z,24.50
2018-07-15T12:42:04.573Z,24.60
2018-07-15T12:44:33.131Z,24.70
2018-07-15T12:47:01.461Z,24.60
2018-07-15T12:52:28.221Z,24.70
2018-07-15T12:54:56.634Z,24.70
2018-07-15T12:57:24.876Z,24.80
2018-07-15T12:59:53.052Z,24.90
2018-07-15T13:02:21.428Z,24.90
2018-07-15T13:04:49.729Z,24.90
2018-07-15T13:07:17.897Z,24.90
2018-07-15T13:09:46.147Z,25.00
2018-07-15T13:12:14.369Z,25.20
2018-07-15T13:14:43.064Z,25.10
2018-07-15T13:17:11.439Z,25.10
2018-07-15T13:19:40.099Z,25.10
2018-07-15T13:24:36.530Z,25.20
2018-07-15T13:27:05.947Z,25.30
2018-07-15T13:29:34.279Z,25.30
2018-07-15T13:32:02.532Z,25.30
2018-07-15T13:34:30.873Z,25.30
2018-07-15T13:36:59.214Z,25.30
2018-07-15T13:39:27.481Z,25.20
2018-07-15T13:41:55.740Z,25.20
2018-07-15T13:44:23.971Z,25.10
2018-07-15T13:46:52.160Z,25.10
2018-07-15T13:49:20.357Z,25.00
2018-07-15T13:51:48.587Z,25.00
2018-07-15T13:54:16.884Z,25.00
2018-07-15T13:56:45.120Z,25.00
2018-07-15T13:59:13.280Z,25.10
2018-07-15T14:01:41.437Z,25.10
2018-07-15T14:04:09.824Z,25.10
2018-07-15T14:06:37.912Z,25.20
2018-07-15T14:09:06.403Z,25.20
2018-07-15T14:11:34.742Z,25.10
2018-07-15T14:14:04.140Z,25.10
2018-07-15T14:16:32.391Z,25.20
2018-07-15T14:19:00.602Z,25.10
2018-07-15T14:21:28.900Z,25.20
2018-07-15T14:23:57.113Z,25.20
2018-07-15T14:28:53.311Z,25.20
2018-07-15T14:31:21.488Z,25.30
2018-07-15T14:33:49.801Z,25.30
2018-07-15T14:36:17.973Z,25.40
2018-07-15T14:38:46.257Z,25.40
2018-07-15T14:41:14.474Z,25.30
2018-07-15T14:43:42.771Z,25.30
2018-07-15T14:46:11.033Z,25.30
2018-07-15T14:48:39.259Z,25.30
2018-07-15T14:53:35.599Z,25.40
2018-07-15T14:58:31.894Z,25.40
2018-07-15T15:01:00.157Z,25.40
2018-07-15T15:03:28.393Z,25.20
2018-07-15T15:05:56.679Z,25.20
2018-07-15T15:08:24.900Z,25.20
2018-07-15T15:10:53.200Z,25.20
2018-07-15T15:16:24.977Z,25.30
2018-07-15T15:18:53.218Z,25.20
2018-07-15T15:21:21.487Z,25.10
2018-07-15T15:23:49.714Z,25.10
2018-07-15T15:26:17.995Z,25.10
2018-07-15T15:28:46.187Z,25.20
2018-07-15T15:31:14.448Z,25.30
2018-07-15T15:33:42.848Z,25.30
2018-07-15T15:36:11.115Z,25.40
2018-07-15T15:38:39.323Z,25.30
2018-07-15T15:41:07.538Z,25.20
2018-07-15T15:43:35.750Z,25.30
2018-07-15T15:46:04.053Z,25.30
2018-07-15T15:48:32.667Z,25.30
2018-07-15T15:51:00.883Z,25.30
2018-07-15T15:53:29.487Z,25.30
2018-07-15T15:55:57.779Z,25.30
2018-07-15T15:58:25.968Z,25.20
2018-07-15T16:00:54.280Z,25.30
2018-07-15T16:03:22.686Z,25.30
2018-07-15T16:05:51.034Z,25.40
2018-07-15T16:08:19.224Z,25.30
2018-07-15T16:10:47.459Z,25.30
2018-07-15T16:13:15.756Z,25.40
2018-07-15T16:15:44.941Z,25.40
2018-07-15T16:18:13.125Z,25.40
2018-07-15T16:20:41.324Z,25.40
2018-07-15T16:23:10.784Z,25.40
2018-07-15T16:25:39.125Z,25.40
2018-07-15T16:28:07.352Z,25.40
2018-07-15T16:30:35.549Z,25.40
2018-07-15T16:33:04.039Z,25.40
2018-07-15T16:35:32.398Z,25.30
2018-07-15T16:38:00.653Z,25.20
2018-07-15T16:40:28.980Z,25.10
2018-07-15T16:42:57.206Z,24.90
2018-07-15T16:45:25.572Z,24.80
2018-07-15T16:47:53.937Z,24.70
2018-07-15T16:50:22.197Z,24.70
2018-07-15T16:52:50.394Z,24.70
2018-07-15T16:55:18.565Z,24.80
2018-07-15T17:00:14.809Z,24.70
2018-07-15T17:02:43.012Z,24.50
2018-07-15T17:05:11.323Z,24.50
2018-07-15T17:07:39.538Z,24.40
2018-07-15T17:10:07.735Z,24.40
2018-07-15T17:12:36.086Z,24.40
2018-07-15T17:17:32.648Z,24.40
2018-07-15T17:20:00.914Z,24.40
2018-07-15T17:22:29.119Z,24.30
2018-07-15T17:24:57.561Z,24.10
2018-07-15T17:27:25.765Z,24.00
2018-07-15T17:29:53.941Z,24.00
2018-07-15T17:32:22.231Z,24.00
2018-07-15T17:34:50.594Z,24.00
2018-07-15T17:37:18.826Z,23.90
2018-07-15T17:39:47.397Z,23.90
2018-07-15T17:42:15.624Z,23.90
2018-07-15T17:44:43.949Z,23.80
2018-07-15T17:47:12.161Z,23.70
2018-07-15T17:49:40.400Z,23.60
2018-07-15T17:52:08.586Z,23.60
2018-07-15T17:54:37.102Z,23.60
2018-07-15T17:57:05.274Z,23.60
2018-07-15T17:59:33.471Z,23.50
2018-07-15T18:02:01.725Z,23.50
2018-07-15T18:04:30.184Z,23.50
2018-07-15T18:06:58.294Z,23.40
2018-07-15T18:09:26.611Z,23.40
2018-07-15T18:14:22.837Z,23.40
2018-07-15T18:16:51.094Z,23.40
2018-07-15T18:19:19.283Z,23.40
2018-07-15T18:21:47.527Z,23.40
2018-07-15T18:24:15.907Z,23.30
2018-07-15T18:26:44.189Z,23.30
2018-07-15T18:29:12.684Z,23.20
2018-07-15T18:31:41.221Z,23.20
2018-07-15T18:34:09.565Z,23.10
2018-07-15T18:39:05.924Z,23.10
2018-07-15T18:41:34.239Z,23.00
2018-07-15T18:44:02.585Z,23.00
2018-07-15T18:46:30.823Z,22.90
2018-07-15T18:48:59.017Z,22.80
2018-07-15T18:51:27.264Z,22.80
2018-07-15T18:53:55.420Z,22.80
2018-07-15T18:56:30.080Z,22.70
2018-07-15T18:58:58.324Z,22.60
2018-07-15T19:01:26.592Z,22.60
2018-07-15T19:03:54.889Z,22.50
2018-07-15T19:06:23.072Z,22.40
2018-07-15T19:11:19.236Z,22.40
2018-07-15T19:13:47.494Z,22.30
2018-07-15T19:16:15.819Z,22.30
2018-07-15T19:18:44.065Z,22.30
2018-07-15T19:21:12.268Z,22.20
2018-07-15T19:23:40.497Z,22.20
2018-07-15T19:26:08.736Z,22.10
2018-07-15T19:28:36.933Z,22.10
2018-07-15T19:31:05.317Z,22.10
2018-07-15T19:33:33.539Z,22.00
2018-07-15T19:36:03.915Z,21.90
2018-07-15T19:38:32.109Z,21.90
2018-07-15T19:41:00.292Z,21.80
2018-07-15T19:43:28.655Z,21.80
2018-07-15T19:45:57.012Z,21.70
2018-07-15T19:48:25.526Z,21.70
2018-07-15T19:50:53.849Z,21.70
2018-07-15T19:53:22.024Z,21.70
2018-07-15T19:55:50.364Z,21.70
2018-07-15T19:58:18.656Z,21.60
2018-07-15T20:00:47.012Z,21.60
2018-07-15T20:03:15.329Z,21.50
2018-07-15T20:05:43.892Z,21.50
2018-07-15T20:08:12.142Z,21.50
2018-07-15T20:10:41.423Z,21.50
2018-07-15T20:13:09.779Z,21.50
2018-07-15T20:15:38.137Z,21.50
2018-07-15T20:18:07.112Z,21.50
2018-07-15T20:20:35.561Z,21.50
2018-07-15T20:23:04.715Z,21.50
2018-07-15T20:28:01.615Z,21.40
2018-07-15T20:30:29.783Z,21.40
2018-07-15T20:32:58.208Z,21.30
2018-07-15T20:35:26.800Z,21.30
2018-07-15T20:37:56.476Z,21.30
2018-07-15T20:40:25.724Z,21.30
2018-07-15T20:45:21.916Z,21.30
2018-07-15T20:47:50.130Z,21.30
2018-07-15T20:50:18.330Z,21.30
2018-07-15T20:52:46.543Z,21.30
2018-07-15T20:55:14.870Z,21.30
2018-07-15T20:57:43.207Z,21.30
2018-07-15T21:00:11.464Z,21.30
2018-07-15T21:02:39.768Z,21.30
2018-07-15T21:05:07.866Z,21.30
2018-07-15T21:07:36.071Z,21.20
2018-07-15T21:10:04.677Z,21.20
2018-07-15T21:12:32.881Z,21.10
2018-07-15T21:15:01.231Z,21.10
2018-07-15T21:17:29.537Z,21.00
2018-07-15T21:19:57.728Z,21.00
2018-07-15T21:22:25.953Z,21.00
2018-07-15T21:24:54.320Z,21.00
2018-07-15T21:27:22.546Z,21.00
2018-07-15T21:32:18.760Z,21.00
2018-07-15T21:34:47.061Z,21.00
2018-07-15T21:37:15.310Z,21.10
2018-07-15T21:39:43.809Z,21.10
2018-07-15T21:42:12.050Z,21.10
2018-07-15T21:44:42.374Z,21.10
2018-07-15T21:47:10.601Z,21.10
2018-07-15T21:49:38.790Z,21.10
2018-07-15T21:52:06.949Z,21.10
2018-07-15T21:54:35.283Z,21.00
2018-07-15T21:57:03.548Z,21.00
2018-07-15T21:59:31.773Z,21.00
2018-07-15T22:01:59.954Z,21.00
2018-07-15T22:04:28.365Z,21.00
2018-07-15T22:07:07.980Z,21.00
2018-07-15T22:10:00.527Z,21.00
2018-07-15T22:12:28.802Z,20.90
2018-07-15T22:14:57.127Z,20.90
2018-07-15T22:17:25.330Z,20.90
2018-07-15T22:19:53.538Z,20.80
2018-07-15T22:22:21.783Z,20.80
2018-07-15T22:24:50.118Z,20.80
2018-07-15T22:27:18.345Z,20.80
2018-07-15T22:29:46.572Z,20.70
2018-07-15T22:32:14.702Z,20.70
2018-07-15T22:34:43.078Z,20.70
2018-07-15T22:37:12.333Z,20.60
2018-07-15T22:39:40.575Z,20.60
2018-07-15T22:42:08.868Z,20.60
2018-07-15T22:44:37.207Z,20.50
2018-07-15T22:47:05.551Z,20.50
2018-07-15T22:49:33.779Z,20.50
2018-07-15T22:52:01.973Z,20.40
2018-07-15T22:54:30.372Z,20.40
2018-07-15T22:56:58.543Z,20.40
2018-07-15T22:59:26.767Z,20.40
2018-07-15T23:01:55.069Z,20.30
2018-07-15T23:05:36.221Z,20.30
2018-07-15T23:08:05.186Z,20.30
2018-07-15T23:10:33.498Z,20.30
2018-07-15T23:13:02.226Z,20.20
2018-07-15T23:15:30.947Z,20.20
2018-07-15T23:17:59.196Z,20.20
2018-07-15T23:20:29.125Z,20.20
2018-07-15T23:22:57.793Z,20.20
2018-07-15T23:25:27.046Z,20.20
2018-07-15T23:27:55.396Z,20.20
2018-07-15T23:30:23.596Z,20.20
2018-07-15T23:32:51.930Z,20.10
2018-07-15T23:35:21.148Z,20.10
2018-07-15T23:37:49.400Z,20.10
2018-07-15T23:40:17.650Z,20.10
2018-07-15T23:42:45.808Z,20.00
2018-07-15T23:45:15.119Z,20.00
2018-07-15T23:47:43.358Z,20.00
2018-07-15T23:50:11.566Z,20.00
2018-07-15T23:52:39.762Z,20.00
2018-07-15T23:55:07.958Z,20.00
2018-07-15T23:57:36.126Z,20.00
